sensor_id;sensor_type;location;lat;lon;timestamp;temperature;humidity
11764;DHT22;5939;56.522;14.950;2023-07-31T00:00:11;18.50;99.90
11764;DHT22;5939;56.522;14.950;2023-07-31T00:02:37;18.50;99.90
11764;DHT22;5939;56.522;14.950;2023-07-31T00:05:02;18.40;99.90
11764;DHT22;5939;56.522;14.950;2023-07-31T00:07:28;18.40;99.90
11764;DHT22;5939;56.522;14.950;2023-07-31T00:09:54;18.40;99.90
11764;DHT22;5939;56.522;14.950;2023-07-31T00:12:20;18.40;99.90
11764;DHT22;5939;56.522;14.950;2023-07-31T00:14:46;18.40;99.90
11764;DHT22;5939;56.522;14.950;2023-07-31T00:17:12;18.40;99.90
11764;DHT22;5939;56.522;14.950;2023-07-31T00:19:37;18.40;99.90
11764;DHT22;5939;56.522;14.950;2023-07-31T00:22:03;18.30;99.90
11764;DHT22;5939;56.522;14.950;2023-07-31T00:24:29;18.30;99.90
11764;DHT22;5939;56.522;14.950;2023-07-31T00:26:54;18.30;99.90
11764;DHT22;5939;56.522;14.950;2023-07-31T00:29:20;18.30;99.90
11764;DHT22;5939;56.522;14.950;2023-07-31T00:31:46;18.30;99.90
11764;DHT22;5939;56.522;14.950;2023-07-31T00:34:11;18.20;99.90
11764;DHT22;5939;56.522;14.950;2023-07-31T00:36:37;18.20;99.90
11764;DHT22;5939;56.522;14.950;2023-07-31T00:39:03;18.20;99.90
11764;DHT22;5939;56.522;14.950;2023-07-31T00:41:30;18.20;99.90
11764;DHT22;5939;56.522;14.950;2023-07-31T00:43:55;18.10;99.90
11764;DHT22;5939;56.522;14.950;2023-07-31T00:46:21;18.10;99.90
11764;DHT22;5939;56.522;14.950;2023-07-31T00:48:47;18.10;99.90
11764;DHT22;5939;56.522;14.950;2023-07-31T00:51:12;18.10;99.90
11764;DHT22;5939;56.522;14.950;2023-07-31T00:53:39;18.10;99.90
11764;DHT22;5939;56.522;14.950;2023-07-31T00:56:05;18.00;99.90
11764;DHT22;5939;56.522;14.950;2023-07-31T00:58:31;18.00;99.90
11764;DHT22;5939;56.522;14.950;2023-07-31T01:00:57;18.00;99.90
11764;DHT22;5939;56.522;14.950;2023-07-31T01:03:23;18.00;99.90
11764;DHT22;5939;56.522;14.950;2023-07-31T01:06:04;18.00;99.90
11764;DHT22;5939;56.522;14.950;2023-07-31T01:08:40;17.90;99.90
11764;DHT22;5939;56.522;14.950;2023-07-31T01:11:29;17.90;99.90
11764;DHT22;5939;56.522;14.950;2023-07-31T01:13:55;17.90;99.90
11764;DHT22;5939;56.522;14.950;2023-07-31T01:16:21;17.80;99.90
11764;DHT22;5939;56.522;14.950;2023-07-31T01:18:48;17.80;99.90
11764;DHT22;5939;56.522;14.950;2023-07-31T01:26:43;17.80;99.90
11764;DHT22;5939;56.522;14.950;2023-07-31T01:32:03;17.70;99.90
11764;DHT22;5939;56.522;14.950;2023-07-31T01:34:30;17.70;99.90
11764;DHT22;5939;56.522;14.950;2023-07-31T01:36:56;17.70;99.90
11764;DHT22;5939;56.522;14.950;2023-07-31T01:39:23;17.60;99.90
11764;DHT22;5939;56.522;14.950;2023-07-31T01:41:49;17.60;99.90
11764;DHT22;5939;56.522;14.950;2023-07-31T01:44:15;17.60;99.90
11764;DHT22;5939;56.522;14.950;2023-07-31T01:46:40;17.60;99.90
11764;DHT22;5939;56.522;14.950;2023-07-31T01:49:06;17.50;99.90
11764;DHT22;5939;56.522;14.950;2023-07-31T01:51:32;17.50;99.90
11764;DHT22;5939;56.522;14.950;2023-07-31T01:54:01;17.50;99.90
11764;DHT22;5939;56.522;14.950;2023-07-31T01:56:27;17.50;99.90
11764;DHT22;5939;56.522;14.950;2023-07-31T01:58:53;17.50;99.90
11764;DHT22;5939;56.522;14.950;2023-07-31T02:01:18;17.40;99.90
11764;DHT22;5939;56.522;14.950;2023-07-31T02:03:44;17.40;99.90
11764;DHT22;5939;56.522;14.950;2023-07-31T02:06:10;17.40;99.90
11764;DHT22;5939;56.522;14.950;2023-07-31T02:08:35;17.40;99.90
11764;DHT22;5939;56.522;14.950;2023-07-31T02:11:01;17.40;99.90
11764;DHT22;5939;56.522;14.950;2023-07-31T02:13:26;17.30;99.90
11764;DHT22;5939;56.522;14.950;2023-07-31T02:15:52;17.30;99.90
11764;DHT22;5939;56.522;14.950;2023-07-31T02:18:18;17.30;99.90
11764;DHT22;5939;56.522;14.950;2023-07-31T02:20:43;17.30;99.90
11764;DHT22;5939;56.522;14.950;2023-07-31T02:23:11;17.30;99.90
11764;DHT22;5939;56.522;14.950;2023-07-31T02:25:37;17.20;99.90
11764;DHT22;5939;56.522;14.950;2023-07-31T02:28:02;17.20;99.90
11764;DHT22;5939;56.522;14.950;2023-07-31T02:30:28;17.20;99.90
11764;DHT22;5939;56.522;14.950;2023-07-31T02:32:54;17.20;99.90
11764;DHT22;5939;56.522;14.950;2023-07-31T02:35:19;17.20;99.90
11764;DHT22;5939;56.522;14.950;2023-07-31T02:37:45;17.10;99.90
11764;DHT22;5939;56.522;14.950;2023-07-31T02:40:11;17.10;99.90
11764;DHT22;5939;56.522;14.950;2023-07-31T02:42:37;17.10;99.90
11764;DHT22;5939;56.522;14.950;2023-07-31T02:45:02;17.10;99.90
11764;DHT22;5939;56.522;14.950;2023-07-31T02:47:28;17.00;99.90
11764;DHT22;5939;56.522;14.950;2023-07-31T02:49:54;17.00;99.90
11764;DHT22;5939;56.522;14.950;2023-07-31T02:52:21;17.00;99.90
11764;DHT22;5939;56.522;14.950;2023-07-31T02:54:46;17.00;99.90
11764;DHT22;5939;56.522;14.950;2023-07-31T02:57:12;17.00;99.90
11764;DHT22;5939;56.522;14.950;2023-07-31T02:59:38;16.90;99.90
11764;DHT22;5939;56.522;14.950;2023-07-31T03:02:04;16.90;99.90
11764;DHT22;5939;56.522;14.950;2023-07-31T03:04:29;17.00;99.90
11764;DHT22;5939;56.522;14.950;2023-07-31T03:06:55;16.90;99.90
11764;DHT22;5939;56.522;14.950;2023-07-31T03:09:20;16.90;99.90
11764;DHT22;5939;56.522;14.950;2023-07-31T03:11:46;16.90;99.90
11764;DHT22;5939;56.522;14.950;2023-07-31T03:14:12;16.80;99.90
11764;DHT22;5939;56.522;14.950;2023-07-31T03:16:37;16.80;99.90
11764;DHT22;5939;56.522;14.950;2023-07-31T03:19:03;16.80;99.90
11764;DHT22;5939;56.522;14.950;2023-07-31T03:21:28;16.80;99.90
11764;DHT22;5939;56.522;14.950;2023-07-31T03:23:54;16.80;99.90
11764;DHT22;5939;56.522;14.950;2023-07-31T03:26:20;16.70;99.90
11764;DHT22;5939;56.522;14.950;2023-07-31T03:28:45;16.70;99.90
11764;DHT22;5939;56.522;14.950;2023-07-31T03:31:11;16.70;99.90
11764;DHT22;5939;56.522;14.950;2023-07-31T03:33:37;16.70;99.90
11764;DHT22;5939;56.522;14.950;2023-07-31T03:36:03;16.70;99.90
11764;DHT22;5939;56.522;14.950;2023-07-31T03:38:28;16.70;99.90
11764;DHT22;5939;56.522;14.950;2023-07-31T03:40:54;16.70;99.90
11764;DHT22;5939;56.522;14.950;2023-07-31T03:43:20;16.60;99.90
11764;DHT22;5939;56.522;14.950;2023-07-31T03:45:46;16.60;99.90
11764;DHT22;5939;56.522;14.950;2023-07-31T03:48:11;16.60;99.90
11764;DHT22;5939;56.522;14.950;2023-07-31T03:50:37;16.60;99.90
11764;DHT22;5939;56.522;14.950;2023-07-31T03:53:03;16.60;99.90
11764;DHT22;5939;56.522;14.950;2023-07-31T03:55:28;16.60;99.90
11764;DHT22;5939;56.522;14.950;2023-07-31T03:57:54;16.60;99.90
11764;DHT22;5939;56.522;14.950;2023-07-31T04:00:19;16.60;99.90
11764;DHT22;5939;56.522;14.950;2023-07-31T04:02:46;16.50;99.90
11764;DHT22;5939;56.522;14.950;2023-07-31T04:05:12;16.60;99.90
11764;DHT22;5939;56.522;14.950;2023-07-31T04:07:38;16.60;99.90
11764;DHT22;5939;56.522;14.950;2023-07-31T04:10:03;16.60;99.90
11764;DHT22;5939;56.522;14.950;2023-07-31T04:12:29;16.50;99.90
11764;DHT22;5939;56.522;14.950;2023-07-31T04:14:55;16.50;99.90
11764;DHT22;5939;56.522;14.950;2023-07-31T04:17:20;16.50;99.90
11764;DHT22;5939;56.522;14.950;2023-07-31T04:19:46;16.50;99.90
11764;DHT22;5939;56.522;14.950;2023-07-31T04:22:12;16.50;99.90
11764;DHT22;5939;56.522;14.950;2023-07-31T04:24:37;16.50;99.90
11764;DHT22;5939;56.522;14.950;2023-07-31T04:27:03;16.50;99.90
11764;DHT22;5939;56.522;14.950;2023-07-31T04:29:29;16.50;99.90
11764;DHT22;5939;56.522;14.950;2023-07-31T04:31:54;16.50;99.90
11764;DHT22;5939;56.522;14.950;2023-07-31T04:34:20;16.50;99.90
11764;DHT22;5939;56.522;14.950;2023-07-31T04:36:46;16.50;99.90
11764;DHT22;5939;56.522;14.950;2023-07-31T04:39:11;16.50;99.90
11764;DHT22;5939;56.522;14.950;2023-07-31T04:41:37;16.50;99.90
11764;DHT22;5939;56.522;14.950;2023-07-31T04:44:03;16.50;99.90
11764;DHT22;5939;56.522;14.950;2023-07-31T04:46:31;16.50;99.90
11764;DHT22;5939;56.522;14.950;2023-07-31T04:48:57;16.50;99.90
11764;DHT22;5939;56.522;14.950;2023-07-31T04:51:22;16.50;99.90
11764;DHT22;5939;56.522;14.950;2023-07-31T04:53:49;16.50;99.90
11764;DHT22;5939;56.522;14.950;2023-07-31T04:56:15;16.50;99.90
11764;DHT22;5939;56.522;14.950;2023-07-31T04:58:41;16.50;99.90
11764;DHT22;5939;56.522;14.950;2023-07-31T05:01:06;16.50;99.90
11764;DHT22;5939;56.522;14.950;2023-07-31T05:03:32;16.50;99.90
11764;DHT22;5939;56.522;14.950;2023-07-31T05:05:57;16.50;99.90
11764;DHT22;5939;56.522;14.950;2023-07-31T05:08:23;16.50;99.90
11764;DHT22;5939;56.522;14.950;2023-07-31T05:10:49;16.50;99.90
11764;DHT22;5939;56.522;14.950;2023-07-31T05:13:15;16.50;99.90
11764;DHT22;5939;56.522;14.950;2023-07-31T05:15:41;16.50;99.90
11764;DHT22;5939;56.522;14.950;2023-07-31T05:18:07;16.50;99.90
11764;DHT22;5939;56.522;14.950;2023-07-31T05:20:32;16.50;99.90
11764;DHT22;5939;56.522;14.950;2023-07-31T05:22:58;16.50;99.90
11764;DHT22;5939;56.522;14.950;2023-07-31T05:25:23;16.50;99.90
11764;DHT22;5939;56.522;14.950;2023-07-31T05:27:49;16.50;99.90
11764;DHT22;5939;56.522;14.950;2023-07-31T05:30:15;16.50;99.90
11764;DHT22;5939;56.522;14.950;2023-07-31T05:32:40;16.50;99.90
11764;DHT22;5939;56.522;14.950;2023-07-31T05:35:06;16.50;99.90
11764;DHT22;5939;56.522;14.950;2023-07-31T05:37:32;16.50;99.90
11764;DHT22;5939;56.522;14.950;2023-07-31T05:39:58;16.50;99.90
11764;DHT22;5939;56.522;14.950;2023-07-31T05:42:24;16.50;99.90
11764;DHT22;5939;56.522;14.950;2023-07-31T05:44:49;16.50;99.90
11764;DHT22;5939;56.522;14.950;2023-07-31T05:47:15;16.50;99.90
11764;DHT22;5939;56.522;14.950;2023-07-31T05:49:41;16.50;99.90
11764;DHT22;5939;56.522;14.950;2023-07-31T05:52:07;16.50;99.90
11764;DHT22;5939;56.522;14.950;2023-07-31T05:54:32;16.50;99.90
11764;DHT22;5939;56.522;14.950;2023-07-31T05:56:59;16.50;99.90
11764;DHT22;5939;56.522;14.950;2023-07-31T05:59:24;16.50;99.90
11764;DHT22;5939;56.522;14.950;2023-07-31T06:01:50;16.60;99.90
11764;DHT22;5939;56.522;14.950;2023-07-31T06:04:16;16.60;99.90
11764;DHT22;5939;56.522;14.950;2023-07-31T06:06:41;16.60;99.90
11764;DHT22;5939;56.522;14.950;2023-07-31T06:09:07;16.60;99.90
11764;DHT22;5939;56.522;14.950;2023-07-31T06:11:32;16.60;99.90
11764;DHT22;5939;56.522;14.950;2023-07-31T06:13:58;16.60;99.90
11764;DHT22;5939;56.522;14.950;2023-07-31T06:16:24;16.60;99.90
11764;DHT22;5939;56.522;14.950;2023-07-31T06:18:50;16.60;99.90
11764;DHT22;5939;56.522;14.950;2023-07-31T06:21:17;16.70;99.90
11764;DHT22;5939;56.522;14.950;2023-07-31T06:23:42;16.70;99.90
11764;DHT22;5939;56.522;14.950;2023-07-31T06:26:08;16.70;99.90
11764;DHT22;5939;56.522;14.950;2023-07-31T06:28:34;16.70;99.90
11764;DHT22;5939;56.522;14.950;2023-07-31T06:31:00;16.70;99.90
11764;DHT22;5939;56.522;14.950;2023-07-31T06:33:26;16.80;99.90
11764;DHT22;5939;56.522;14.950;2023-07-31T06:35:52;16.80;99.90
11764;DHT22;5939;56.522;14.950;2023-07-31T06:38:36;16.80;99.90
11764;DHT22;5939;56.522;14.950;2023-07-31T06:41:03;16.90;99.90
11764;DHT22;5939;56.522;14.950;2023-07-31T06:43:29;16.90;99.90
11764;DHT22;5939;56.522;14.950;2023-07-31T06:45:54;17.00;99.90
11764;DHT22;5939;56.522;14.950;2023-07-31T06:48:20;17.00;99.90
11764;DHT22;5939;56.522;14.950;2023-07-31T06:50:46;17.10;99.90
11764;DHT22;5939;56.522;14.950;2023-07-31T06:53:11;17.10;99.90
11764;DHT22;5939;56.522;14.950;2023-07-31T06:55:37;17.20;99.90
11764;DHT22;5939;56.522;14.950;2023-07-31T06:58:03;17.30;99.90
11764;DHT22;5939;56.522;14.950;2023-07-31T07:00:29;17.40;99.90
11764;DHT22;5939;56.522;14.950;2023-07-31T07:02:54;17.50;99.90
11764;DHT22;5939;56.522;14.950;2023-07-31T07:05:20;17.60;99.90
11764;DHT22;5939;56.522;14.950;2023-07-31T07:07:46;17.60;99.90
11764;DHT22;5939;56.522;14.950;2023-07-31T07:10:11;17.70;99.90
11764;DHT22;5939;56.522;14.950;2023-07-31T07:12:37;17.70;99.90
11764;DHT22;5939;56.522;14.950;2023-07-31T07:15:03;17.80;99.90
11764;DHT22;5939;56.522;14.950;2023-07-31T07:17:29;17.90;99.90
11764;DHT22;5939;56.522;14.950;2023-07-31T07:19:59;17.90;99.90
11764;DHT22;5939;56.522;14.950;2023-07-31T07:22:25;18.00;99.90
11764;DHT22;5939;56.522;14.950;2023-07-31T07:24:52;18.10;99.90
11764;DHT22;5939;56.522;14.950;2023-07-31T07:27:18;18.20;99.90
11764;DHT22;5939;56.522;14.950;2023-07-31T07:29:45;18.30;99.90
11764;DHT22;5939;56.522;14.950;2023-07-31T07:32:11;18.40;99.90
11764;DHT22;5939;56.522;14.950;2023-07-31T07:34:37;18.50;99.90
11764;DHT22;5939;56.522;14.950;2023-07-31T07:37:03;18.60;99.90
11764;DHT22;5939;56.522;14.950;2023-07-31T07:39:28;18.70;99.90
11764;DHT22;5939;56.522;14.950;2023-07-31T07:41:54;18.80;99.90
11764;DHT22;5939;56.522;14.950;2023-07-31T07:44:20;18.90;99.90
11764;DHT22;5939;56.522;14.950;2023-07-31T07:46:46;19.00;99.90
11764;DHT22;5939;56.522;14.950;2023-07-31T07:49:11;19.10;99.90
11764;DHT22;5939;56.522;14.950;2023-07-31T07:51:37;19.20;99.90
11764;DHT22;5939;56.522;14.950;2023-07-31T07:54:03;19.30;99.90
11764;DHT22;5939;56.522;14.950;2023-07-31T07:56:28;19.40;99.90
11764;DHT22;5939;56.522;14.950;2023-07-31T07:58:54;19.50;99.90
11764;DHT22;5939;56.522;14.950;2023-07-31T08:01:20;19.60;99.90
11764;DHT22;5939;56.522;14.950;2023-07-31T08:03:46;19.60;99.90
11764;DHT22;5939;56.522;14.950;2023-07-31T08:06:12;19.70;99.90
11764;DHT22;5939;56.522;14.950;2023-07-31T08:08:38;19.80;99.90
11764;DHT22;5939;56.522;14.950;2023-07-31T08:11:04;19.80;99.90
11764;DHT22;5939;56.522;14.950;2023-07-31T08:13:30;19.80;99.90
11764;DHT22;5939;56.522;14.950;2023-07-31T08:15:55;19.90;99.90
11764;DHT22;5939;56.522;14.950;2023-07-31T08:18:21;19.90;99.90
11764;DHT22;5939;56.522;14.950;2023-07-31T08:20:46;20.00;99.90
11764;DHT22;5939;56.522;14.950;2023-07-31T08:23:12;20.00;99.90
11764;DHT22;5939;56.522;14.950;2023-07-31T08:25:38;20.10;99.90
11764;DHT22;5939;56.522;14.950;2023-07-31T08:28:05;20.20;99.90
11764;DHT22;5939;56.522;14.950;2023-07-31T08:30:31;20.20;99.90
11764;DHT22;5939;56.522;14.950;2023-07-31T08:32:56;20.30;99.90
11764;DHT22;5939;56.522;14.950;2023-07-31T08:35:23;20.40;99.90
11764;DHT22;5939;56.522;14.950;2023-07-31T08:37:49;20.40;99.90
11764;DHT22;5939;56.522;14.950;2023-07-31T08:40:15;20.50;99.90
11764;DHT22;5939;56.522;14.950;2023-07-31T08:42:44;20.60;99.90
11764;DHT22;5939;56.522;14.950;2023-07-31T08:45:14;20.60;99.90
11764;DHT22;5939;56.522;14.950;2023-07-31T08:47:44;20.70;99.90
11764;DHT22;5939;56.522;14.950;2023-07-31T08:50:12;20.70;99.90
11764;DHT22;5939;56.522;14.950;2023-07-31T08:52:38;20.70;99.90
11764;DHT22;5939;56.522;14.950;2023-07-31T08:55:04;20.80;99.90
11764;DHT22;5939;56.522;14.950;2023-07-31T08:57:30;20.80;99.90
11764;DHT22;5939;56.522;14.950;2023-07-31T08:59:57;20.80;99.90
11764;DHT22;5939;56.522;14.950;2023-07-31T09:02:25;20.90;99.90
11764;DHT22;5939;56.522;14.950;2023-07-31T09:04:52;20.90;99.90
11764;DHT22;5939;56.522;14.950;2023-07-31T09:07:18;20.90;99.90
11764;DHT22;5939;56.522;14.950;2023-07-31T09:09:45;20.90;99.90
11764;DHT22;5939;56.522;14.950;2023-07-31T09:12:12;20.90;99.90
11764;DHT22;5939;56.522;14.950;2023-07-31T09:14:38;20.90;99.90
11764;DHT22;5939;56.522;14.950;2023-07-31T09:17:04;20.90;99.90
11764;DHT22;5939;56.522;14.950;2023-07-31T09:19:34;20.90;99.90
11764;DHT22;5939;56.522;14.950;2023-07-31T09:22:02;20.90;99.90
11764;DHT22;5939;56.522;14.950;2023-07-31T09:24:30;20.90;99.90
11764;DHT22;5939;56.522;14.950;2023-07-31T09:26:57;20.90;99.90
11764;DHT22;5939;56.522;14.950;2023-07-31T09:29:27;20.90;99.90
11764;DHT22;5939;56.522;14.950;2023-07-31T09:31:54;20.90;99.90
11764;DHT22;5939;56.522;14.950;2023-07-31T09:34:21;20.80;99.90
11764;DHT22;5939;56.522;14.950;2023-07-31T09:36:53;20.80;99.90
11764;DHT22;5939;56.522;14.950;2023-07-31T09:39:19;20.80;99.90
11764;DHT22;5939;56.522;14.950;2023-07-31T09:41:48;20.80;99.90
11764;DHT22;5939;56.522;14.950;2023-07-31T09:44:18;20.80;99.90
11764;DHT22;5939;56.522;14.950;2023-07-31T09:46:44;20.80;99.90
11764;DHT22;5939;56.522;14.950;2023-07-31T09:49:12;20.70;99.90
11764;DHT22;5939;56.522;14.950;2023-07-31T09:51:40;20.70;99.90
11764;DHT22;5939;56.522;14.950;2023-07-31T09:54:16;20.70;99.90
11764;DHT22;5939;56.522;14.950;2023-07-31T09:56:46;20.70;99.90
11764;DHT22;5939;56.522;14.950;2023-07-31T09:59:14;20.70;99.90
11764;DHT22;5939;56.522;14.950;2023-07-31T10:01:41;20.70;99.90
11764;DHT22;5939;56.522;14.950;2023-07-31T10:04:11;20.60;99.90
11764;DHT22;5939;56.522;14.950;2023-07-31T10:06:37;20.60;99.90
11764;DHT22;5939;56.522;14.950;2023-07-31T10:09:09;20.60;99.90
11764;DHT22;5939;56.522;14.950;2023-07-31T10:11:42;20.60;99.90
11764;DHT22;5939;56.522;14.950;2023-07-31T10:14:10;20.60;99.90
11764;DHT22;5939;56.522;14.950;2023-07-31T10:16:38;20.60;99.90
11764;DHT22;5939;56.522;14.950;2023-07-31T10:19:04;20.60;99.90
11764;DHT22;5939;56.522;14.950;2023-07-31T10:21:31;20.60;99.90
11764;DHT22;5939;56.522;14.950;2023-07-31T10:24:02;20.60;99.90
11764;DHT22;5939;56.522;14.950;2023-07-31T10:26:28;20.60;99.90
11764;DHT22;5939;56.522;14.950;2023-07-31T10:28:55;20.60;99.90
11764;DHT22;5939;56.522;14.950;2023-07-31T10:31:21;20.60;99.90
11764;DHT22;5939;56.522;14.950;2023-07-31T10:33:47;20.60;99.90
11764;DHT22;5939;56.522;14.950;2023-07-31T10:36:16;20.50;99.90
11764;DHT22;5939;56.522;14.950;2023-07-31T10:38:42;20.50;99.90
11764;DHT22;5939;56.522;14.950;2023-07-31T10:41:11;20.50;99.90
11764;DHT22;5939;56.522;14.950;2023-07-31T10:43:37;20.50;99.90
11764;DHT22;5939;56.522;14.950;2023-07-31T10:46:07;20.60;99.90
11764;DHT22;5939;56.522;14.950;2023-07-31T10:48:34;20.60;99.90
11764;DHT22;5939;56.522;14.950;2023-07-31T10:51:10;20.60;99.90
11764;DHT22;5939;56.522;14.950;2023-07-31T10:53:36;20.60;99.90
11764;DHT22;5939;56.522;14.950;2023-07-31T10:56:08;20.70;99.90
11764;DHT22;5939;56.522;14.950;2023-07-31T10:58:34;20.70;99.90
11764;DHT22;5939;56.522;14.950;2023-07-31T11:01:03;20.70;99.90
11764;DHT22;5939;56.522;14.950;2023-07-31T11:03:46;20.80;99.90
11764;DHT22;5939;56.522;14.950;2023-07-31T11:06:15;20.80;99.90
11764;DHT22;5939;56.522;14.950;2023-07-31T11:08:50;20.80;99.90
11764;DHT22;5939;56.522;14.950;2023-07-31T11:11:18;20.80;99.90
11764;DHT22;5939;56.522;14.950;2023-07-31T11:13:52;20.80;99.90
11764;DHT22;5939;56.522;14.950;2023-07-31T11:16:19;20.80;99.90
11764;DHT22;5939;56.522;14.950;2023-07-31T11:18:47;20.80;99.90
11764;DHT22;5939;56.522;14.950;2023-07-31T11:21:18;20.80;99.90
11764;DHT22;5939;56.522;14.950;2023-07-31T11:23:48;20.80;99.90
11764;DHT22;5939;56.522;14.950;2023-07-31T11:26:14;20.80;99.90
11764;DHT22;5939;56.522;14.950;2023-07-31T11:28:40;20.80;99.90
11764;DHT22;5939;56.522;14.950;2023-07-31T11:31:10;20.80;99.90
11764;DHT22;5939;56.522;14.950;2023-07-31T11:33:36;20.80;99.90
11764;DHT22;5939;56.522;14.950;2023-07-31T11:36:02;20.70;99.90
11764;DHT22;5939;56.522;14.950;2023-07-31T11:38:32;20.70;99.90
11764;DHT22;5939;56.522;14.950;2023-07-31T11:41:00;20.70;99.90
11764;DHT22;5939;56.522;14.950;2023-07-31T11:43:26;20.60;99.90
11764;DHT22;5939;56.522;14.950;2023-07-31T11:45:55;20.60;99.90
11764;DHT22;5939;56.522;14.950;2023-07-31T11:48:21;20.60;99.90
11764;DHT22;5939;56.522;14.950;2023-07-31T11:50:49;20.60;99.90
11764;DHT22;5939;56.522;14.950;2023-07-31T11:53:17;20.60;99.90
11764;DHT22;5939;56.522;14.950;2023-07-31T11:55:44;20.50;99.90
11764;DHT22;5939;56.522;14.950;2023-07-31T11:58:11;20.60;99.90
11764;DHT22;5939;56.522;14.950;2023-07-31T12:00:37;20.50;99.90
11764;DHT22;5939;56.522;14.950;2023-07-31T12:03:03;20.50;99.90
11764;DHT22;5939;56.522;14.950;2023-07-31T12:05:28;20.50;99.90
11764;DHT22;5939;56.522;14.950;2023-07-31T12:07:56;20.60;99.90
11764;DHT22;5939;56.522;14.950;2023-07-31T12:10:32;20.60;99.90
11764;DHT22;5939;56.522;14.950;2023-07-31T12:13:04;20.60;99.90
11764;DHT22;5939;56.522;14.950;2023-07-31T12:15:38;20.60;99.90
11764;DHT22;5939;56.522;14.950;2023-07-31T12:18:06;20.70;99.90
11764;DHT22;5939;56.522;14.950;2023-07-31T12:20:33;20.70;99.90
11764;DHT22;5939;56.522;14.950;2023-07-31T12:22:59;20.70;99.90
11764;DHT22;5939;56.522;14.950;2023-07-31T12:25:34;20.70;99.90
11764;DHT22;5939;56.522;14.950;2023-07-31T12:28:05;20.80;99.90
11764;DHT22;5939;56.522;14.950;2023-07-31T12:30:34;20.80;99.90
11764;DHT22;5939;56.522;14.950;2023-07-31T12:33:14;20.80;99.90
11764;DHT22;5939;56.522;14.950;2023-07-31T12:35:47;20.80;99.90
11764;DHT22;5939;56.522;14.950;2023-07-31T12:38:13;20.80;99.90
11764;DHT22;5939;56.522;14.950;2023-07-31T12:40:40;20.80;99.90
11764;DHT22;5939;56.522;14.950;2023-07-31T12:43:07;20.80;99.90
11764;DHT22;5939;56.522;14.950;2023-07-31T12:45:33;20.90;99.90
11764;DHT22;5939;56.522;14.950;2023-07-31T12:47:59;20.90;99.90
11764;DHT22;5939;56.522;14.950;2023-07-31T12:50:26;20.90;99.90
11764;DHT22;5939;56.522;14.950;2023-07-31T12:52:53;20.90;99.90
11764;DHT22;5939;56.522;14.950;2023-07-31T12:55:20;21.00;99.90
11764;DHT22;5939;56.522;14.950;2023-07-31T12:57:46;21.00;99.90
11764;DHT22;5939;56.522;14.950;2023-07-31T13:00:12;21.00;99.90
11764;DHT22;5939;56.522;14.950;2023-07-31T13:02:39;21.00;99.90
11764;DHT22;5939;56.522;14.950;2023-07-31T13:05:04;21.00;99.90
11764;DHT22;5939;56.522;14.950;2023-07-31T13:07:30;21.10;99.90
11764;DHT22;5939;56.522;14.950;2023-07-31T13:09:56;21.10;99.90
11764;DHT22;5939;56.522;14.950;2023-07-31T13:12:21;21.10;99.90
11764;DHT22;5939;56.522;14.950;2023-07-31T13:14:47;21.10;99.90
11764;DHT22;5939;56.522;14.950;2023-07-31T13:17:12;21.20;99.90
11764;DHT22;5939;56.522;14.950;2023-07-31T13:19:38;21.20;99.90
11764;DHT22;5939;56.522;14.950;2023-07-31T13:22:04;21.20;99.90
11764;DHT22;5939;56.522;14.950;2023-07-31T13:24:29;21.20;99.90
11764;DHT22;5939;56.522;14.950;2023-07-31T13:26:56;21.20;99.90
11764;DHT22;5939;56.522;14.950;2023-07-31T13:29:22;21.20;99.90
11764;DHT22;5939;56.522;14.950;2023-07-31T13:31:49;21.20;99.90
11764;DHT22;5939;56.522;14.950;2023-07-31T13:34:14;21.20;99.90
11764;DHT22;5939;56.522;14.950;2023-07-31T13:36:40;21.20;99.90
11764;DHT22;5939;56.522;14.950;2023-07-31T13:39:07;21.20;99.90
11764;DHT22;5939;56.522;14.950;2023-07-31T13:41:32;21.20;99.90
11764;DHT22;5939;56.522;14.950;2023-07-31T13:43:58;21.20;99.90
11764;DHT22;5939;56.522;14.950;2023-07-31T13:46:24;21.20;99.90
11764;DHT22;5939;56.522;14.950;2023-07-31T13:48:51;21.20;99.90
11764;DHT22;5939;56.522;14.950;2023-07-31T13:51:16;21.20;99.90
11764;DHT22;5939;56.522;14.950;2023-07-31T13:53:42;21.20;99.90
11764;DHT22;5939;56.522;14.950;2023-07-31T13:56:08;21.20;99.90
11764;DHT22;5939;56.522;14.950;2023-07-31T13:58:33;21.20;99.90
11764;DHT22;5939;56.522;14.950;2023-07-31T14:00:59;21.20;99.90
11764;DHT22;5939;56.522;14.950;2023-07-31T14:03:25;21.20;99.90
11764;DHT22;5939;56.522;14.950;2023-07-31T14:05:52;21.10;99.90
11764;DHT22;5939;56.522;14.950;2023-07-31T14:08:17;21.20;99.90
11764;DHT22;5939;56.522;14.950;2023-07-31T14:10:43;21.20;99.90
11764;DHT22;5939;56.522;14.950;2023-07-31T14:13:09;21.10;99.90
11764;DHT22;5939;56.522;14.950;2023-07-31T14:15:34;21.10;99.90
11764;DHT22;5939;56.522;14.950;2023-07-31T14:18:01;21.10;99.90
11764;DHT22;5939;56.522;14.950;2023-07-31T14:20:28;21.10;99.90
11764;DHT22;5939;56.522;14.950;2023-07-31T14:22:53;21.10;99.90
11764;DHT22;5939;56.522;14.950;2023-07-31T14:25:19;21.10;99.90
11764;DHT22;5939;56.522;14.950;2023-07-31T14:27:45;21.10;99.90
11764;DHT22;5939;56.522;14.950;2023-07-31T14:30:11;21.10;99.90
11764;DHT22;5939;56.522;14.950;2023-07-31T14:32:37;21.10;99.90
11764;DHT22;5939;56.522;14.950;2023-07-31T14:35:03;21.10;99.90
11764;DHT22;5939;56.522;14.950;2023-07-31T14:37:40;21.10;99.90
11764;DHT22;5939;56.522;14.950;2023-07-31T14:40:07;21.10;99.90
11764;DHT22;5939;56.522;14.950;2023-07-31T14:42:33;21.00;99.90
11764;DHT22;5939;56.522;14.950;2023-07-31T14:44:59;21.00;99.90
11764;DHT22;5939;56.522;14.950;2023-07-31T14:47:25;21.00;99.90
11764;DHT22;5939;56.522;14.950;2023-07-31T14:49:50;21.00;99.90
11764;DHT22;5939;56.522;14.950;2023-07-31T14:52:16;21.00;99.90
11764;DHT22;5939;56.522;14.950;2023-07-31T14:54:42;21.00;99.90
11764;DHT22;5939;56.522;14.950;2023-07-31T14:57:08;21.00;99.90
11764;DHT22;5939;56.522;14.950;2023-07-31T14:59:33;21.00;99.90
11764;DHT22;5939;56.522;14.950;2023-07-31T15:01:59;20.90;99.90
11764;DHT22;5939;56.522;14.950;2023-07-31T15:04:25;20.90;99.90
11764;DHT22;5939;56.522;14.950;2023-07-31T15:06:52;20.90;99.90
11764;DHT22;5939;56.522;14.950;2023-07-31T15:09:17;20.90;99.90
11764;DHT22;5939;56.522;14.950;2023-07-31T15:11:43;20.90;99.90
11764;DHT22;5939;56.522;14.950;2023-07-31T15:14:09;20.90;99.90
11764;DHT22;5939;56.522;14.950;2023-07-31T15:16:34;20.80;99.90
11764;DHT22;5939;56.522;14.950;2023-07-31T15:19:00;20.90;99.90
11764;DHT22;5939;56.522;14.950;2023-07-31T15:21:26;20.80;99.90
11764;DHT22;5939;56.522;14.950;2023-07-31T15:23:52;20.80;99.90
11764;DHT22;5939;56.522;14.950;2023-07-31T15:26:17;20.80;99.90
11764;DHT22;5939;56.522;14.950;2023-07-31T15:28:49;20.80;99.90
11764;DHT22;5939;56.522;14.950;2023-07-31T15:31:14;20.80;99.90
11764;DHT22;5939;56.522;14.950;2023-07-31T15:33:40;20.80;99.90